Time,TemperatureF,DewpointF,PressureIn,WindDirection,WindDirectionDegrees,WindSpeedMPH,WindSpeedGustMPH,Humidity,HourlyPrecipIn,Conditions,Clouds,dailyrainin,SoftwareType,DateUTC
2013-01-02 00:05:00,46.3,45.8,29.92,West,259,0.0,0.0,98,0.04,,SKC,0.01,VWS V14.01,2013-01-02 05:05:00,
2013-01-02 00:06:00,46.3,45.8,29.92,West,260,0.0,0.0,98,0.04,,SKC,0.01,VWS V14.01,2013-01-02 05:06:00,
2013-01-02 00:07:00,46.4,45.9,29.92,West,259,0.0,0.0,98,0.03,,SKC,0.01,VWS V14.01,2013-01-02 05:07:00,
2013-01-02 00:13:00,46.3,45.8,29.91,West,260,0.0,0.0,98,0.03,,SKC,0.01,VWS V14.01,2013-01-02 05:13:00,
2013-01-02 00:15:00,46.3,45.8,29.91,West,260,0.0,0.0,98,0.03,,SKC,0.01,VWS V14.01,2013-01-02 05:15:00,
2013-01-02 00:21:00,46.2,45.7,29.91,West,260,0.0,0.0,98,0.03,,SKC,0.01,VWS V14.01,2013-01-02 05:21:00,
2013-01-02 00:26:00,46.1,45.6,29.90,West,259,0.0,0.0,98,0.02,,SKC,0.01,VWS V14.01,2013-01-02 05:26:00,
2013-01-02 00:31:00,46.1,45.6,29.89,West,259,0.0,0.0,98,0.02,,SKC,0.01,VWS V14.01,2013-01-02 05:31:00,
2013-01-02 00:36:00,46.1,45.6,29.90,West,259,0.0,0.0,98,0.02,,SKC,0.01,VWS V14.01,2013-01-02 05:36:00,
2013-01-02 00:41:00,46.2,45.7,29.90,West,260,0.0,0.0,98,0.03,,SKC,0.02,VWS V14.01,2013-01-02 05:41:00,
2013-01-02 00:46:00,46.1,45.6,29.90,West,260,0.0,0.0,98,0.03,,SKC,0.03,VWS V14.01,2013-01-02 05:46:00,
2013-01-02 00:51:00,46.1,45.6,29.90,West,259,0.0,0.0,98,0.04,,SKC,0.04,VWS V14.01,2013-01-02 05:51:00,
2013-01-02 00:56:00,46.1,45.6,29.89,West,259,0.0,0.0,98,0.04,,SKC,0.04,VWS V14.01,2013-01-02 05:56:00,
2013-01-02 01:01:00,46.1,45.6,29.89,West,260,0.0,0.0,98,0.05,,SKC,0.05,VWS V14.01,2013-01-02 06:01:00,
2013-01-02 01:06:00,46.1,45.6,29.88,West,259,0.0,0.0,98,0.04,,SKC,0.05,VWS V14.01,2013-01-02 06:06:00,
2013-01-02 01:11:00,46.1,45.6,29.88,West,260,0.0,0.0,98,0.04,,SKC,0.05,VWS V14.01,2013-01-02 06:11:00,
2013-01-02 01:16:00,46.0,45.5,29.88,West,260,0.0,0.0,98,0.05,,SKC,0.06,VWS V14.01,2013-01-02 06:16:00,
2013-01-02 01:21:00,45.9,45.4,29.88,West,260,0.0,0.0,98,0.05,,SKC,0.06,VWS V14.01,2013-01-02 06:21:00,
2013-01-02 01:26:00,45.9,45.4,29.89,West,259,0.0,0.0,98,0.05,,SKC,0.06,VWS V14.01,2013-01-02 06:26:00,
2013-01-02 01:31:00,46.1,45.6,29.90,West,260,0.0,0.0,98,0.06,,SKC,0.07,VWS V14.01,2013-01-02 06:31:00,
2013-01-02 01:37:00,46.1,45.6,29.89,West,260,0.0,0.0,98,0.07,,SKC,0.08,VWS V14.01,2013-01-02 06:37:00,
2013-01-02 01:43:00,46.1,45.6,29.89,West,260,0.0,0.0,98,0.07,,SKC,0.09,VWS V14.01,2013-01-02 06:43:00,
2013-01-02 01:49:00,46.1,45.6,29.91,West,260,0.0,0.0,98,0.07,,SKC,0.10,VWS V14.01,2013-01-02 06:49:00,
2013-01-02 01:55:00,46.0,45.5,29.90,West,260,0.0,0.0,98,0.06,,SKC,0.10,VWS V14.01,2013-01-02 06:55:00,
2013-01-02 02:01:00,46.0,45.5,29.90,West,260,0.0,0.0,98,0.07,,SKC,0.11,VWS V14.01,2013-01-02 07:01:00,
2013-01-02 02:06:00,46.0,45.5,29.90,West,259,0.0,0.0,98,0.06,,SKC,0.11,VWS V14.01,2013-01-02 07:06:00,
2013-01-02 02:11:00,45.9,45.4,29.90,West,259,0.0,0.0,98,0.06,,SKC,0.11,VWS V14.01,2013-01-02 07:11:00,
2013-01-02 02:16:00,45.9,45.4,29.90,West,259,1.0,0.0,98,0.06,,SKC,0.11,VWS V14.01,2013-01-02 07:16:00,
2013-01-02 02:21:00,45.9,45.4,29.89,WNW,287,0.0,0.0,98,0.05,,SKC,0.11,VWS V14.01,2013-01-02 07:21:00,
2013-01-02 02:26:00,45.9,45.4,29.91,WNW,293,0.0,0.0,98,0.06,,SKC,0.12,VWS V14.01,2013-01-02 07:26:00,
2013-01-02 02:31:00,45.8,45.3,29.89,WNW,293,0.0,0.0,98,0.06,,SKC,0.12,VWS V14.01,2013-01-02 07:31:00,
2013-01-02 02:36:00,45.8,45.3,29.89,WNW,293,1.0,0.0,98,0.05,,SKC,0.12,VWS V14.01,2013-01-02 07:36:00,
2013-01-02 02:41:00,45.7,45.2,29.90,WNW,295,0.0,0.0,98,0.04,,SKC,0.12,VWS V14.01,2013-01-02 07:41:00,
2013-01-02 02:46:00,45.7,45.2,29.90,NNW,342,1.0,0.0,98,0.03,,SKC,0.12,VWS V14.01,2013-01-02 07:46:00,
2013-01-02 02:51:00,45.7,45.2,29.90,NNW,327,1.0,0.0,98,0.02,,SKC,0.12,VWS V14.01,2013-01-02 07:51:00,
2013-01-02 02:56:00,45.6,45.1,29.91,NNW,340,0.0,0.0,98,0.02,,SKC,0.12,VWS V14.01,2013-01-02 07:56:00,
2013-01-02 03:01:00,45.6,45.1,29.91,NNE,29,2.0,0.0,98,0.01,,SKC,0.12,VWS V14.01,2013-01-02 08:01:00,
2013-01-02 03:08:00,45.5,45.0,29.90,NNE,33,2.0,0.0,98,0.02,,SKC,0.13,VWS V14.01,2013-01-02 08:08:00,
2013-01-02 03:14:00,45.4,44.9,29.90,NE,52,2.0,0.0,98,0.02,,SKC,0.13,VWS V14.01,2013-01-02 08:14:00,
2013-01-02 03:20:00,45.3,44.8,29.90,North,1,0.0,0.0,98,0.02,,SKC,0.13,VWS V14.01,2013-01-02 08:20:00,
2013-01-02 03:26:00,45.3,44.8,29.91,NNE,13,1.0,0.0,98,0.02,,SKC,0.13,VWS V14.01,2013-01-02 08:26:00,
2013-01-02 03:31:00,45.3,44.8,29.91,NNE,33,4.0,0.0,98,0.01,,SKC,0.13,VWS V14.01,2013-01-02 08:31:00,
2013-01-02 03:36:00,45.2,44.7,29.91,NE,46,2.0,0.0,98,0.02,,SKC,0.14,VWS V14.01,2013-01-02 08:36:00,
2013-01-02 03:41:00,45.2,44.7,29.91,NE,52,1.0,0.0,98,0.02,,SKC,0.14,VWS V14.01,2013-01-02 08:41:00,
2013-01-02 03:46:00,45.1,44.6,29.91,North,8,2.0,0.0,98,0.02,,SKC,0.14,VWS V14.01,2013-01-02 08:46:00,
2013-01-02 03:51:00,45.1,44.6,29.91,NE,41,2.0,0.0,98,0.02,,SKC,0.14,VWS V14.01,2013-01-02 08:51:00,
2013-01-02 03:56:00,45.0,44.5,29.92,North,11,1.0,0.0,98,0.02,,SKC,0.14,VWS V14.01,2013-01-02 08:56:00,
2013-01-02 04:01:00,44.8,44.3,29.92,NE,37,3.0,0.0,98,0.03,,SKC,0.15,VWS V14.01,2013-01-02 09:01:00,
2013-01-02 04:06:00,44.6,44.1,29.92,NE,50,3.0,0.0,98,0.03,,SKC,0.15,VWS V14.01,2013-01-02 09:06:00,
2013-01-02 04:11:00,44.5,44.0,29.92,NE,51,3.0,0.0,98,0.02,,SKC,0.15,VWS V14.01,2013-01-02 09:11:00,
2013-01-02 04:16:00,44.2,43.7,29.92,NNW,346,1.0,0.0,98,0.02,,SKC,0.15,VWS V14.01,2013-01-02 09:16:00,
2013-01-02 04:21:00,43.9,43.4,29.92,NNE,33,3.0,0.0,98,0.02,,SKC,0.15,VWS V14.01,2013-01-02 09:21:00,
2013-01-02 04:26:00,43.6,43.1,29.92,NNW,347,1.0,0.0,98,0.02,,SKC,0.15,VWS V14.01,2013-01-02 09:26:00,
2013-01-02 04:31:00,43.4,42.9,29.92,North,359,2.0,0.0,98,0.02,,SKC,0.15,VWS V14.01,2013-01-02 09:31:00,
2013-01-02 04:36:00,43.3,42.8,29.92,North,1,1.0,0.0,98,0.02,,SKC,0.15,VWS V14.01,2013-01-02 09:36:00,
2013-01-02 04:41:00,43.2,42.7,29.92,NE,47,2.0,0.0,98,0.01,,SKC,0.15,VWS V14.01,2013-01-02 09:41:00,
2013-01-02 04:46:00,43.1,42.6,29.93,NNW,334,3.0,0.0,98,0.01,,SKC,0.15,VWS V14.01,2013-01-02 09:46:00,
2013-01-02 04:51:00,42.9,42.4,29.94,NNW,338,2.0,0.0,98,0.02,,SKC,0.16,VWS V14.01,2013-01-02 09:51:00,
2013-01-02 04:56:00,42.8,42.3,29.94,NNE,32,2.0,0.0,98,0.02,,SKC,0.16,VWS V14.01,2013-01-02 09:56:00,
2013-01-02 05:01:00,42.6,42.1,29.93,NNE,23,3.0,0.0,98,0.02,,SKC,0.16,VWS V14.01,2013-01-02 10:01:00,
2013-01-02 05:06:00,42.5,42.0,29.92,NNE,20,3.0,0.0,98,0.01,,SKC,0.16,VWS V14.01,2013-01-02 10:06:00,
2013-01-02 05:11:00,42.4,41.9,29.93,North,11,1.0,0.0,98,0.01,,SKC,0.16,VWS V14.01,2013-01-02 10:11:00,
2013-01-02 05:16:00,42.4,41.9,29.93,NE,35,0.0,0.0,98,0.01,,SKC,0.16,VWS V14.01,2013-01-02 10:16:00,
2013-01-02 05:21:00,42.3,41.8,29.94,North,352,3.0,0.0,98,0.01,,SKC,0.16,VWS V14.01,2013-01-02 10:21:00,
2013-01-02 05:26:00,42.3,41.8,29.95,NNE,32,1.0,0.0,98,0.01,,SKC,0.16,VWS V14.01,2013-01-02 10:26:00,
2013-01-02 05:31:00,42.2,41.7,29.95,NNW,332,0.0,0.0,98,0.01,,SKC,0.16,VWS V14.01,2013-01-02 10:31:00,
2013-01-02 05:36:00,42.2,41.7,29.95,North,352,0.0,0.0,98,0.01,,SKC,0.16,VWS V14.01,2013-01-02 10:36:00,
2013-01-02 05:41:00,42.1,41.6,29.95,ENE,60,0.0,0.0,98,0.01,,SKC,0.16,VWS V14.01,2013-01-02 10:41:00,
2013-01-02 05:46:00,42.1,41.6,29.94,NNE,18,0.0,0.0,98,0.01,,SKC,0.16,VWS V14.01,2013-01-02 10:46:00,
2013-01-02 05:51:00,42.0,41.5,29.94,NNE,12,0.0,0.0,98,0.01,,SKC,0.16,VWS V14.01,2013-01-02 10:51:00,
2013-01-02 05:56:00,42.0,41.5,29.95,NE,37,0.0,0.0,98,0.00,,SKC,0.16,VWS V14.01,2013-01-02 10:56:00,
2013-01-02 06:01:00,42.0,41.5,29.95,NE,40,1.0,0.0,98,0.00,,SKC,0.16,VWS V14.01,2013-01-02 11:01:00,
2013-01-02 06:06:00,42.0,41.5,29.95,ESE,116,0.0,0.0,98,0.00,,SKC,0.16,VWS V14.01,2013-01-02 11:06:00,
2013-01-02 06:11:00,41.9,41.4,29.94,East,95,1.0,0.0,98,0.00,,SKC,0.16,VWS V14.01,2013-01-02 11:11:00,
2013-01-02 06:16:00,41.9,41.4,29.95,NNE,31,1.0,0.0,98,0.00,,SKC,0.16,VWS V14.01,2013-01-02 11:16:00,
2013-01-02 06:21:00,41.9,41.4,29.95,East,98,0.0,0.0,98,0.00,,SKC,0.16,VWS V14.01,2013-01-02 11:21:00,
2013-01-02 06:26:00,41.9,41.4,29.95,East,87,2.0,0.0,98,0.00,,SKC,0.16,VWS V14.01,2013-01-02 11:26:00,
2013-01-02 06:31:00,41.8,41.3,29.94,ESE,112,0.0,0.0,98,0.00,,SKC,0.16,VWS V14.01,2013-01-02 11:31:00,
2013-01-02 06:36:00,41.7,41.2,29.95,ESE,111,1.0,0.0,98,0.00,,SKC,0.16,VWS V14.01,2013-01-02 11:36:00,
2013-01-02 06:41:00,41.6,41.1,29.95,ESE,105,0.0,0.0,98,0.00,,SKC,0.16,VWS V14.01,2013-01-02 11:41:00,
2013-01-02 06:46:00,41.5,41.0,29.95,ESE,105,1.0,0.0,98,0.00,,SKC,0.16,VWS V14.01,2013-01-02 11:46:00,
2013-01-02 06:53:00,41.3,40.8,29.96,North,359,0.0,0.0,98,0.00,,SKC,0.16,VWS V14.01,2013-01-02 11:53:00,
2013-01-02 06:59:00,41.3,40.8,29.97,North,360,1.0,0.0,98,0.00,,SKC,0.16,VWS V14.01,2013-01-02 11:59:00,
2013-01-02 07:05:00,41.2,40.7,29.97,NNE,25,0.0,0.0,98,0.00,,SKC,0.16,VWS V14.01,2013-01-02 12:05:00,
2013-01-02 07:11:00,41.2,40.7,29.97,NNE,29,0.0,0.0,98,0.00,,SKC,0.16,VWS V14.01,2013-01-02 12:11:00,
2013-01-02 07:16:00,41.2,40.7,29.97,NNE,15,0.0,0.0,98,0.00,,SKC,0.16,VWS V14.01,2013-01-02 12:16:00,
2013-01-02 07:21:00,41.1,40.6,29.97,NNE,13,0.0,0.0,98,0.00,,SKC,0.16,VWS V14.01,2013-01-02 12:21:00,
2013-01-02 07:26:00,41.1,40.6,29.98,NNE,15,0.0,0.0,98,0.00,,SKC,0.16,VWS V14.01,2013-01-02 12:26:00,
2013-01-02 07:31:00,41.0,40.5,29.98,NNE,15,0.0,0.0,98,0.00,,SKC,0.16,VWS V14.01,2013-01-02 12:31:00,
2013-01-02 07:36:00,41.0,40.5,29.99,NNE,15,0.0,0.0,98,0.00,,SKC,0.16,VWS V14.01,2013-01-02 12:36:00,
2013-01-02 07:41:00,40.9,40.4,30.00,North,356,1.0,0.0,98,0.00,,SKC,0.16,VWS V14.01,2013-01-02 12:41:00,
2013-01-02 07:46:00,40.9,40.4,29.99,North,356,0.0,0.0,98,0.00,,SKC,0.16,VWS V14.01,2013-01-02 12:46:00,
2013-01-02 07:51:00,40.9,40.4,30.00,NNW,344,1.0,0.0,98,0.00,,SKC,0.16,VWS V14.01,2013-01-02 12:51:00,
2013-01-02 07:56:00,40.8,40.3,30.00,North,349,1.0,0.0,98,0.00,,SKC,0.16,VWS V14.01,2013-01-02 12:56:00,
2013-01-02 08:01:00,40.6,40.1,30.00,NNE,17,1.0,0.0,98,0.00,,SKC,0.16,VWS V14.01,2013-01-02 13:01:00,
2013-01-02 08:06:00,40.6,40.1,30.01,North,5,2.0,0.0,98,0.00,,SKC,0.16,VWS V14.01,2013-01-02 13:06:00,
2013-01-02 08:11:00,40.5,39.7,30.01,NNW,346,1.0,0.0,97,0.00,,SKC,0.16,VWS V14.01,2013-01-02 13:11:00,
2013-01-02 08:16:00,40.5,39.7,30.01,NNE,13,1.0,0.0,97,0.00,,SKC,0.16,VWS V14.01,2013-01-02 13:16:00,
2013-01-02 08:21:00,40.6,39.8,30.01,NNW,348,2.0,0.0,97,0.00,,SKC,0.16,VWS V14.01,2013-01-02 13:21:00,
2013-01-02 08:26:00,40.6,39.8,30.01,North,9,1.0,0.0,97,0.00,,SKC,0.16,VWS V14.01,2013-01-02 13:26:00,
2013-01-02 08:31:00,40.7,39.9,30.02,North,359,1.0,0.0,97,0.00,,SKC,0.16,VWS V14.01,2013-01-02 13:31:00,
2013-01-02 08:36:00,40.7,39.9,30.02,NE,40,2.0,0.0,97,0.00,,SKC,0.16,VWS V14.01,2013-01-02 13:36:00,
2013-01-02 08:41:00,40.8,40.0,30.02,NNE,29,2.0,0.0,97,0.00,,SKC,0.16,VWS V14.01,2013-01-02 13:41:00,
2013-01-02 08:46:00,40.8,40.0,30.03,NNE,16,2.0,0.0,97,0.00,,SKC,0.16,VWS V14.01,2013-01-02 13:46:00,
2013-01-02 08:51:00,40.8,40.0,30.03,NNW,327,1.0,0.0,97,0.00,,SKC,0.16,VWS V14.01,2013-01-02 13:51:00,
2013-01-02 08:56:00,40.8,39.8,30.03,North,359,1.0,0.0,96,0.00,,SKC,0.16,VWS V14.01,2013-01-02 13:56:00,
2013-01-02 09:01:00,40.9,39.8,30.03,North,8,2.0,0.0,96,0.00,,SKC,0.16,VWS V14.01,2013-01-02 14:01:00,
2013-01-02 09:06:00,40.9,39.6,30.03,NNW,342,3.0,0.0,95,0.00,,SKC,0.16,VWS V14.01,2013-01-02 14:06:00,
2013-01-02 09:11:00,41.1,39.8,30.05,NNE,33,1.0,0.0,95,0.00,,SKC,0.16,VWS V14.01,2013-01-02 14:11:00,
2013-01-02 09:16:00,41.0,39.4,30.05,NNE,26,1.0,0.0,94,0.00,,SKC,0.16,VWS V14.01,2013-01-02 14:16:00,
2013-01-02 09:21:00,40.9,39.3,30.05,North,357,1.0,0.0,94,0.00,,SKC,0.16,VWS V14.01,2013-01-02 14:21:00,
2013-01-02 09:26:00,40.8,39.2,30.05,North,354,2.0,0.0,94,0.00,,SKC,0.16,VWS V14.01,2013-01-02 14:26:00,
2013-01-02 09:31:00,41.0,39.4,30.05,NNW,333,0.0,0.0,94,0.00,,SKC,0.16,VWS V14.01,2013-01-02 14:31:00,
2013-01-02 09:36:00,41.8,40.2,30.05,North,1,3.0,0.0,94,0.00,,SKC,0.16,VWS V14.01,2013-01-02 14:36:00,
2013-01-02 09:41:00,42.2,40.3,30.04,NE,36,2.0,0.0,93,0.00,,SKC,0.16,VWS V14.01,2013-01-02 14:41:00,
2013-01-02 09:46:00,42.4,39.7,30.05,North,353,2.0,0.0,90,0.00,,SKC,0.16,VWS V14.01,2013-01-02 14:46:00,
2013-01-02 09:51:00,42.4,39.7,30.06,NE,47,3.0,0.0,90,0.00,,SKC,0.16,VWS V14.01,2013-01-02 14:51:00,
2013-01-02 09:56:00,42.4,39.7,30.06,NNE,26,2.0,0.0,90,0.00,,SKC,0.16,VWS V14.01,2013-01-02 14:56:00,
2013-01-02 10:01:00,42.4,39.4,30.06,NNE,29,4.0,0.0,89,0.00,,SKC,0.16,VWS V14.01,2013-01-02 15:01:00,
2013-01-02 10:06:00,42.3,39.3,30.06,NNE,13,1.0,0.0,89,0.00,,SKC,0.16,VWS V14.01,2013-01-02 15:06:00,
2013-01-02 10:11:00,42.4,39.1,30.06,North,356,3.0,0.0,88,0.00,,SKC,0.16,VWS V14.01,2013-01-02 15:11:00,
2013-01-02 10:16:00,42.3,39.0,30.05,North,5,1.0,0.0,88,0.00,,SKC,0.16,VWS V14.01,2013-01-02 15:16:00,
2013-01-02 10:21:00,42.3,38.7,30.06,NNW,344,2.0,0.0,87,0.00,,SKC,0.16,VWS V14.01,2013-01-02 15:21:00,
2013-01-02 10:26:00,42.2,38.9,30.07,NE,35,2.0,0.0,88,0.00,,SKC,0.16,VWS V14.01,2013-01-02 15:26:00,
2013-01-02 10:31:00,42.2,38.9,30.08,NNW,346,2.0,0.0,88,0.00,,SKC,0.16,VWS V14.01,2013-01-02 15:31:00,
2013-01-02 10:36:00,42.4,39.1,30.08,NE,50,1.0,0.0,88,0.00,,SKC,0.16,VWS V14.01,2013-01-02 15:36:00,
2013-01-02 10:41:00,43.4,40.1,30.08,North,359,2.0,0.0,88,0.00,,SKC,0.16,VWS V14.01,2013-01-02 15:41:00,
2013-01-02 10:46:00,43.8,39.6,30.07,NNE,15,4.0,0.0,85,0.00,,SKC,0.16,VWS V14.01,2013-01-02 15:46:00,
2013-01-02 10:51:00,44.0,39.8,30.06,NE,43,3.0,0.0,85,0.00,,SKC,0.16,VWS V14.01,2013-01-02 15:51:00,
2013-01-02 10:56:00,43.7,39.2,30.07,NE,43,2.0,0.0,84,0.00,,SKC,0.16,VWS V14.01,2013-01-02 15:56:00,
2013-01-02 11:01:00,43.9,39.1,30.07,North,352,3.0,0.0,83,0.00,,SKC,0.16,VWS V14.01,2013-01-02 16:01:00,
2013-01-02 11:06:00,44.8,40.6,30.07,NNE,32,3.0,0.0,85,0.00,,SKC,0.16,VWS V14.01,2013-01-02 16:06:00,
2013-01-02 11:11:00,45.1,39.9,30.07,NNE,20,3.0,0.0,82,0.00,,SKC,0.16,VWS V14.01,2013-01-02 16:11:00,
2013-01-02 11:16:00,45.6,40.4,30.07,North,356,3.0,0.0,82,0.00,,SKC,0.16,VWS V14.01,2013-01-02 16:16:00,
2013-01-02 11:21:00,45.5,39.4,30.05,NW,325,2.0,0.0,79,0.00,,SKC,0.16,VWS V14.01,2013-01-02 16:21:00,
2013-01-02 11:26:00,45.2,38.4,30.05,NNW,340,3.0,0.0,77,0.00,,SKC,0.16,VWS V14.01,2013-01-02 16:26:00,
2013-01-02 11:31:00,44.9,39.1,30.05,NW,315,2.0,0.0,80,0.00,,SKC,0.16,VWS V14.01,2013-01-02 16:31:00,
2013-01-02 11:36:00,44.9,38.8,30.05,NNW,327,1.0,0.0,79,0.00,,SKC,0.16,VWS V14.01,2013-01-02 16:36:00,
2013-01-02 11:41:00,45.8,38.7,30.06,NNW,328,3.0,0.0,76,0.00,,SKC,0.16,VWS V14.01,2013-01-02 16:41:00,
2013-01-02 11:46:00,46.0,38.2,30.05,NW,305,2.0,0.0,74,0.00,,SKC,0.16,VWS V14.01,2013-01-02 16:46:00,
2013-01-02 11:51:00,46.1,38.3,30.05,NW,309,1.0,0.0,74,0.00,,SKC,0.16,VWS V14.01,2013-01-02 16:51:00,
2013-01-02 11:56:00,46.5,38.7,30.05,NNW,342,2.0,0.0,74,0.00,,SKC,0.16,VWS V14.01,2013-01-02 16:56:00,
2013-01-02 12:05:00,46.8,38.3,30.04,West,281,2.0,0.0,72,0.00,,SKC,0.16,VWS V14.01,2013-01-02 17:05:00,
2013-01-02 12:11:00,46.4,38.2,30.05,NW,325,2.0,0.0,73,0.00,,SKC,0.16,VWS V14.01,2013-01-02 17:11:00,
2013-01-02 12:16:00,46.4,37.5,30.03,NNE,17,1.0,0.0,71,0.00,,SKC,0.16,VWS V14.01,2013-01-02 17:16:00,
2013-01-02 12:21:00,46.4,37.5,30.02,North,1,3.0,0.0,71,0.00,,SKC,0.16,VWS V14.01,2013-01-02 17:21:00,
2013-01-02 12:26:00,46.1,37.6,30.02,NW,316,2.0,0.0,72,0.00,,SKC,0.16,VWS V14.01,2013-01-02 17:26:00,
2013-01-02 12:31:00,46.1,37.9,30.03,ENE,63,1.0,0.0,73,0.00,,SKC,0.16,VWS V14.01,2013-01-02 17:31:00,
2013-01-02 12:36:00,46.3,37.8,30.02,North,4,4.0,0.0,72,0.00,,SKC,0.16,VWS V14.01,2013-01-02 17:36:00,
2013-01-02 12:41:00,46.2,37.3,30.02,NE,39,2.0,0.0,71,0.00,,SKC,0.16,VWS V14.01,2013-01-02 17:41:00,
2013-01-02 12:46:00,46.6,37.7,30.01,North,1,2.0,0.0,71,0.00,,SKC,0.16,VWS V14.01,2013-01-02 17:46:00,
2013-01-02 12:51:00,46.4,37.5,30.02,NW,311,3.0,0.0,71,0.00,,SKC,0.16,VWS V14.01,2013-01-02 17:51:00,
2013-01-02 12:56:00,46.2,37.0,30.02,North,353,1.0,0.0,70,0.00,,SKC,0.16,VWS V14.01,2013-01-02 17:56:00,
2013-01-02 13:01:00,46.3,37.8,30.02,NW,322,0.0,0.0,72,0.00,,SKC,0.16,VWS V14.01,2013-01-02 18:01:00,
2013-01-02 13:06:00,46.5,38.0,30.00,SE,132,0.0,0.0,72,0.00,,SKC,0.16,VWS V14.01,2013-01-02 18:06:00,
2013-01-02 13:11:00,46.5,38.0,30.01,NNE,33,2.0,0.0,72,0.00,,SKC,0.16,VWS V14.01,2013-01-02 18:11:00,
2013-01-02 13:16:00,46.5,37.6,30.01,North,9,1.0,0.0,71,0.00,,SKC,0.16,VWS V14.01,2013-01-02 18:16:00,
2013-01-02 13:21:00,46.4,37.2,30.02,North,360,1.0,0.0,70,0.00,,SKC,0.16,VWS V14.01,2013-01-02 18:21:00,
2013-01-02 13:26:00,46.2,37.3,30.02,ENE,58,1.0,0.0,71,0.00,,SKC,0.16,VWS V14.01,2013-01-02 18:26:00,
2013-01-02 13:31:00,46.3,37.4,30.01,NW,316,2.0,0.0,71,0.00,,SKC,0.16,VWS V14.01,2013-01-02 18:31:00,
2013-01-02 13:36:00,46.3,37.1,30.01,NNE,25,0.0,0.0,70,0.00,,SKC,0.16,VWS V14.01,2013-01-02 18:36:00,
2013-01-02 13:41:00,46.3,37.1,30.02,NNW,327,2.0,0.0,70,0.00,,SKC,0.16,VWS V14.01,2013-01-02 18:41:00,
2013-01-02 13:46:00,46.2,37.3,30.02,NNW,329,2.0,0.0,71,0.00,,SKC,0.16,VWS V14.01,2013-01-02 18:46:00,
2013-01-02 13:51:00,46.1,37.6,30.01,East,80,1.0,0.0,72,0.00,,SKC,0.16,VWS V14.01,2013-01-02 18:51:00,
2013-01-02 13:56:00,46.3,37.4,30.01,NNE,32,1.0,0.0,71,0.00,,SKC,0.16,VWS V14.01,2013-01-02 18:56:00,
2013-01-02 14:01:00,46.5,37.6,30.01,North,354,1.0,0.0,71,0.00,,SKC,0.16,VWS V14.01,2013-01-02 19:01:00,
2013-01-02 14:06:00,46.6,37.0,30.01,NE,44,0.0,0.0,69,0.00,,SKC,0.16,VWS V14.01,2013-01-02 19:06:00,
2013-01-02 14:11:00,46.7,37.5,30.01,NNW,335,1.0,0.0,70,0.00,,SKC,0.16,VWS V14.01,2013-01-02 19:11:00,
2013-01-02 14:16:00,46.9,38.0,30.01,NE,46,0.0,0.0,71,0.00,,SKC,0.16,VWS V14.01,2013-01-02 19:16:00,
2013-01-02 14:21:00,47.0,37.7,30.01,NNE,17,1.0,0.0,70,0.00,,SKC,0.16,VWS V14.01,2013-01-02 19:21:00,
2013-01-02 14:26:00,47.2,37.6,30.01,NW,307,1.0,0.0,69,0.00,,SKC,0.16,VWS V14.01,2013-01-02 19:26:00,
2013-01-02 14:31:00,47.1,37.5,30.01,NNE,26,1.0,0.0,69,0.00,,SKC,0.16,VWS V14.01,2013-01-02 19:31:00,
2013-01-02 14:36:00,47.1,37.5,30.01,North,5,1.0,0.0,69,0.00,,SKC,0.16,VWS V14.01,2013-01-02 19:36:00,
2013-01-02 14:41:00,47.6,38.0,30.02,NNE,30,1.0,0.0,69,0.00,,SKC,0.16,VWS V14.01,2013-01-02 19:41:00,
2013-01-02 14:46:00,47.7,37.3,30.02,East,82,0.0,0.0,67,0.00,,SKC,0.16,VWS V14.01,2013-01-02 19:46:00,
2013-01-02 14:51:00,47.7,37.3,30.02,NW,309,0.0,0.0,67,0.00,,SKC,0.16,VWS V14.01,2013-01-02 19:51:00,
2013-01-02 14:56:00,47.5,37.5,30.02,North,357,2.0,0.0,68,0.00,,SKC,0.16,VWS V14.01,2013-01-02 19:56:00,
2013-01-02 15:01:00,47.2,37.2,30.02,North,352,2.0,0.0,68,0.00,,SKC,0.16,VWS V14.01,2013-01-02 20:01:00,
2013-01-02 15:06:00,46.9,36.9,30.02,NW,325,1.0,0.0,68,0.00,,SKC,0.16,VWS V14.01,2013-01-02 20:06:00,
2013-01-02 15:11:00,46.9,37.3,30.02,NW,310,0.0,0.0,69,0.00,,SKC,0.16,VWS V14.01,2013-01-02 20:11:00,
2013-01-02 15:16:00,47.0,37.7,30.02,NW,312,0.0,0.0,70,0.00,,SKC,0.16,VWS V14.01,2013-01-02 20:16:00,
2013-01-02 15:21:00,46.9,37.3,30.02,NE,50,0.0,0.0,69,0.00,,SKC,0.16,VWS V14.01,2013-01-02 20:21:00,
2013-01-02 15:26:00,47.0,37.4,30.02,NNE,22,1.0,0.0,69,0.00,,SKC,0.16,VWS V14.01,2013-01-02 20:26:00,
2013-01-02 15:31:00,46.9,37.3,30.03,North,11,1.0,0.0,69,0.00,,SKC,0.16,VWS V14.01,2013-01-02 20:31:00,
2013-01-02 15:36:00,46.9,36.9,30.03,WNW,303,1.0,0.0,68,0.00,,SKC,0.16,VWS V14.01,2013-01-02 20:36:00,
2013-01-02 15:41:00,46.8,35.7,30.03,NW,323,1.0,0.0,65,0.00,,SKC,0.16,VWS V14.01,2013-01-02 20:41:00,
2013-01-02 15:46:00,46.7,36.0,30.03,NW,321,2.0,0.0,66,0.00,,SKC,0.16,VWS V14.01,2013-01-02 20:46:00,
2013-01-02 15:51:00,46.6,35.9,30.04,NNW,333,1.0,0.0,66,0.00,,SKC,0.16,VWS V14.01,2013-01-02 20:51:00,
2013-01-02 15:56:00,46.4,35.7,30.04,NW,311,0.0,0.0,66,0.00,,SKC,0.16,VWS V14.01,2013-01-02 20:56:00,
2013-01-02 16:01:00,46.3,36.0,30.04,NW,310,0.0,0.0,67,0.00,,SKC,0.16,VWS V14.01,2013-01-02 21:01:00,
2013-01-02 16:06:00,46.2,35.9,30.05,NW,311,1.0,0.0,67,0.00,,SKC,0.16,VWS V14.01,2013-01-02 21:06:00,
2013-01-02 16:11:00,45.9,35.2,30.05,NW,314,0.0,0.0,66,0.00,,SKC,0.16,VWS V14.01,2013-01-02 21:11:00,
2013-01-02 16:16:00,45.7,35.4,30.05,NW,315,1.0,0.0,67,0.00,,SKC,0.16,VWS V14.01,2013-01-02 21:16:00,
2013-01-02 16:21:00,45.5,35.6,30.05,NW,304,0.0,0.0,68,0.00,,SKC,0.16,VWS V14.01,2013-01-02 21:21:00,
2013-01-02 16:26:00,45.3,35.4,30.06,NW,324,0.0,0.0,68,0.00,,SKC,0.16,VWS V14.01,2013-01-02 21:26:00,
2013-01-02 16:31:00,45.2,35.7,30.06,NW,324,0.0,0.0,69,0.00,,SKC,0.16,VWS V14.01,2013-01-02 21:31:00,
2013-01-02 16:36:00,45.0,35.8,30.05,NW,325,0.0,0.0,70,0.00,,SKC,0.16,VWS V14.01,2013-01-02 21:36:00,
2013-01-02 16:41:00,44.8,35.6,30.06,NW,325,0.0,0.0,70,0.00,,SKC,0.16,VWS V14.01,2013-01-02 21:41:00,
2013-01-02 16:46:00,44.6,35.8,30.06,NW,324,0.0,0.0,71,0.00,,SKC,0.16,VWS V14.01,2013-01-02 21:46:00,
2013-01-02 16:51:00,44.5,36.4,30.06,NW,325,0.0,0.0,73,0.00,,SKC,0.16,VWS V14.01,2013-01-02 21:51:00,
2013-01-02 16:56:00,44.3,36.2,30.06,NW,324,0.0,0.0,73,0.00,,SKC,0.16,VWS V14.01,2013-01-02 21:56:00,
2013-01-02 17:01:00,44.1,36.4,30.05,NW,325,0.0,0.0,74,0.00,,SKC,0.16,VWS V14.01,2013-01-02 22:01:00,
2013-01-02 17:06:00,43.9,36.5,30.06,NNW,332,0.0,0.0,75,0.00,,SKC,0.16,VWS V14.01,2013-01-02 22:06:00,
2013-01-02 17:12:00,43.7,36.6,30.06,North,9,2.0,0.0,76,0.00,,SKC,0.16,VWS V14.01,2013-01-02 22:12:00,
2013-01-02 17:18:00,43.7,36.3,30.06,NNW,336,1.0,0.0,75,0.00,,SKC,0.16,VWS V14.01,2013-01-02 22:18:00,
2013-01-02 17:24:00,43.5,36.5,30.06,North,356,2.0,0.0,76,0.00,,SKC,0.16,VWS V14.01,2013-01-02 22:24:00,
2013-01-02 17:30:00,43.4,36.3,30.06,NNE,23,1.0,0.0,76,0.00,,SKC,0.16,VWS V14.01,2013-01-02 22:30:00,
2013-01-02 17:36:00,43.2,35.8,30.06,North,5,0.0,0.0,75,0.00,,SKC,0.16,VWS V14.01,2013-01-02 22:36:00,
2013-01-02 17:41:00,43.0,35.6,30.06,NNE,33,2.0,0.0,75,0.00,,SKC,0.16,VWS V14.01,2013-01-02 22:41:00,
2013-01-02 17:46:00,42.7,35.7,30.07,NNW,342,2.0,0.0,76,0.00,,SKC,0.16,VWS V14.01,2013-01-02 22:46:00,
2013-01-02 17:51:00,42.6,35.6,30.07,NNE,15,1.0,0.0,76,0.00,,SKC,0.16,VWS V14.01,2013-01-02 22:51:00,
2013-01-02 17:56:00,42.5,35.5,30.07,North,349,3.0,0.0,76,0.00,,SKC,0.16,VWS V14.01,2013-01-02 22:56:00,
2013-01-02 18:01:00,42.4,35.4,30.07,North,11,3.0,0.0,76,0.00,,SKC,0.16,VWS V14.01,2013-01-02 23:01:00,
2013-01-02 18:06:00,42.2,35.2,30.08,NNE,23,1.0,0.0,76,0.00,,SKC,0.16,VWS V14.01,2013-01-02 23:06:00,
2013-01-02 18:11:00,42.0,35.0,30.08,North,6,1.0,0.0,76,0.00,,SKC,0.16,VWS V14.01,2013-01-02 23:11:00,
2013-01-02 18:16:00,41.9,35.2,30.07,NNE,33,0.0,0.0,77,0.00,,SKC,0.16,VWS V14.01,2013-01-02 23:16:00,
2013-01-02 18:21:00,41.7,35.0,30.06,North,11,0.0,0.0,77,0.00,,SKC,0.16,VWS V14.01,2013-01-02 23:21:00,
2013-01-02 18:26:00,41.5,34.8,30.07,North,11,0.0,0.0,77,0.00,,SKC,0.16,VWS V14.01,2013-01-02 23:26:00,
2013-01-02 18:31:00,41.3,34.7,30.08,North,9,1.0,0.0,77,0.00,,SKC,0.16,VWS V14.01,2013-01-02 23:31:00,
2013-01-02 18:36:00,41.2,34.9,30.10,NNW,330,1.0,0.0,78,0.00,,SKC,0.16,VWS V14.01,2013-01-02 23:36:00,
2013-01-02 18:41:00,40.9,34.3,30.10,NNW,339,2.0,0.0,77,0.00,,SKC,0.16,VWS V14.01,2013-01-02 23:41:00,
2013-01-02 18:46:00,40.9,33.9,30.11,NNW,334,1.0,0.0,76,0.00,,SKC,0.16,VWS V14.01,2013-01-02 23:46:00,
2013-01-02 18:51:00,40.7,34.1,30.11,NNW,347,1.0,0.0,77,0.00,,SKC,0.16,VWS V14.01,2013-01-02 23:51:00,
2013-01-02 18:56:00,40.6,34.0,30.10,NNE,16,2.0,0.0,77,0.00,,SKC,0.16,VWS V14.01,2013-01-02 23:56:00,
2013-01-02 19:01:00,40.6,34.0,30.10,North,358,0.0,0.0,77,0.00,,SKC,0.16,VWS V14.01,2013-01-03 00:01:00,
2013-01-02 19:06:00,40.5,33.9,30.10,NNE,12,1.0,0.0,77,0.00,,SKC,0.16,VWS V14.01,2013-01-03 00:06:00,
2013-01-02 19:11:00,40.4,33.8,30.10,NNW,327,0.0,0.0,77,0.00,,SKC,0.16,VWS V14.01,2013-01-03 00:11:00,
2013-01-02 19:16:00,40.3,33.7,30.11,NNW,332,0.0,0.0,77,0.00,,SKC,0.16,VWS V14.01,2013-01-03 00:16:00,
2013-01-02 19:21:00,40.2,33.6,30.11,North,351,0.0,0.0,77,0.00,,SKC,0.16,VWS V14.01,2013-01-03 00:21:00,
2013-01-02 19:26:00,40.1,33.5,30.10,North,8,2.0,0.0,77,0.00,,SKC,0.16,VWS V14.01,2013-01-03 00:26:00,
2013-01-02 19:31:00,40.0,33.7,30.10,North,9,1.0,0.0,78,0.00,,SKC,0.16,VWS V14.01,2013-01-03 00:31:00,
2013-01-02 19:37:00,39.9,33.3,30.11,NNE,15,0.0,0.0,77,0.00,,SKC,0.16,VWS V14.01,2013-01-03 00:37:00,
2013-01-02 19:43:00,39.8,33.2,30.11,NE,54,1.0,0.0,77,0.00,,SKC,0.16,VWS V14.01,2013-01-03 00:43:00,
2013-01-02 19:49:00,39.8,33.5,30.10,NE,52,0.0,0.0,78,0.00,,SKC,0.16,VWS V14.01,2013-01-03 00:49:00,
2013-01-02 19:55:00,39.6,33.3,30.11,North,6,1.0,0.0,78,0.00,,SKC,0.16,VWS V14.01,2013-01-03 00:55:00,
2013-01-02 20:01:00,39.5,33.2,30.10,NNE,23,1.0,0.0,78,0.00,,SKC,0.16,VWS V14.01,2013-01-03 01:01:00,
2013-01-02 20:06:00,39.4,33.1,30.10,NNW,340,1.0,0.0,78,0.00,,SKC,0.16,VWS V14.01,2013-01-03 01:06:00,
2013-01-02 20:11:00,39.4,32.8,30.10,North,350,1.0,0.0,77,0.00,,SKC,0.16,VWS V14.01,2013-01-03 01:11:00,
2013-01-02 20:16:00,39.4,32.8,30.12,North,355,1.0,0.0,77,0.00,,SKC,0.16,VWS V14.01,2013-01-03 01:16:00,
2013-01-02 20:21:00,39.3,32.7,30.09,ENE,63,2.0,0.0,77,0.00,,SKC,0.16,VWS V14.01,2013-01-03 01:21:00,
2013-01-02 20:26:00,39.3,32.7,30.09,NE,49,3.0,0.0,77,0.00,,SKC,0.16,VWS V14.01,2013-01-03 01:26:00,
2013-01-02 20:31:00,39.2,32.6,30.10,North,9,2.0,0.0,77,0.00,,SKC,0.16,VWS V14.01,2013-01-03 01:31:00,
2013-01-02 20:36:00,39.1,32.2,30.09,North,356,1.0,0.0,76,0.00,,SKC,0.16,VWS V14.01,2013-01-03 01:36:00,
2013-01-02 20:41:00,39.1,32.2,30.10,NNW,347,1.0,0.0,76,0.00,,SKC,0.16,VWS V14.01,2013-01-03 01:41:00,
2013-01-02 20:46:00,39.1,32.2,30.11,NNE,33,1.0,0.0,76,0.00,,SKC,0.16,VWS V14.01,2013-01-03 01:46:00,
2013-01-02 20:51:00,39.0,32.1,30.10,NNE,30,0.0,0.0,76,0.00,,SKC,0.16,VWS V14.01,2013-01-03 01:51:00,
2013-01-02 20:56:00,38.9,32.0,30.10,NNE,30,0.0,0.0,76,0.00,,SKC,0.16,VWS V14.01,2013-01-03 01:56:00,
2013-01-02 21:01:00,38.9,32.0,30.10,East,94,0.0,0.0,76,0.00,,SKC,0.16,VWS V14.01,2013-01-03 02:01:00,
2013-01-02 21:06:00,38.7,31.8,30.11,SE,137,0.0,0.0,76,0.00,,SKC,0.16,VWS V14.01,2013-01-03 02:06:00,
2013-01-02 21:11:00,38.7,31.8,30.11,NNW,335,0.0,0.0,76,0.00,,SKC,0.16,VWS V14.01,2013-01-03 02:11:00,
2013-01-02 21:16:00,38.6,32.0,30.11,NNW,334,0.0,0.0,77,0.00,,SKC,0.16,VWS V14.01,2013-01-03 02:16:00,
2013-01-02 21:21:00,38.5,31.9,30.11,NNW,334,0.0,0.0,77,0.00,,SKC,0.16,VWS V14.01,2013-01-03 02:21:00,
2013-01-02 21:26:00,38.3,31.7,30.11,NNW,335,0.0,0.0,77,0.00,,SKC,0.16,VWS V14.01,2013-01-03 02:26:00,
2013-01-02 21:31:00,38.2,32.3,30.10,East,90,0.0,0.0,79,0.00,,SKC,0.16,VWS V14.01,2013-01-03 02:31:00,
2013-01-02 21:36:00,38.2,32.0,30.12,NNW,337,1.0,0.0,78,0.00,,SKC,0.16,VWS V14.01,2013-01-03 02:36:00,
2013-01-02 21:41:00,38.3,32.0,30.12,East,94,1.0,0.0,78,0.00,,SKC,0.16,VWS V14.01,2013-01-03 02:41:00,
2013-01-02 21:46:00,38.2,32.3,30.12,East,94,0.0,0.0,79,0.00,,SKC,0.16,VWS V14.01,2013-01-03 02:46:00,
2013-01-02 21:51:00,38.1,32.2,30.11,East,94,0.0,0.0,79,0.00,,SKC,0.16,VWS V14.01,2013-01-03 02:51:00,
2013-01-02 21:56:00,38.0,32.1,30.11,East,94,0.0,0.0,79,0.00,,SKC,0.16,VWS V14.01,2013-01-03 02:56:00,
2013-01-02 22:01:00,37.9,32.0,30.12,East,94,0.0,0.0,79,0.00,,SKC,0.16,VWS V14.01,2013-01-03 03:01:00,
2013-01-02 22:06:00,37.7,32.1,30.13,East,93,0.0,0.0,80,0.00,,SKC,0.16,VWS V14.01,2013-01-03 03:06:00,
2013-01-02 22:11:00,37.8,32.2,30.12,East,93,0.0,0.0,80,0.00,,SKC,0.16,VWS V14.01,2013-01-03 03:11:00,
2013-01-02 22:16:00,37.8,32.2,30.12,East,94,0.0,0.0,80,0.00,,SKC,0.16,VWS V14.01,2013-01-03 03:16:00,
2013-01-02 22:21:00,37.9,32.3,30.12,East,94,0.0,0.0,80,0.00,,SKC,0.16,VWS V14.01,2013-01-03 03:21:00,
2013-01-02 22:26:00,37.9,32.3,30.12,East,99,0.0,0.0,80,0.00,,SKC,0.16,VWS V14.01,2013-01-03 03:26:00,
2013-01-02 22:31:00,38.0,32.4,30.13,East,85,0.0,0.0,80,0.00,,SKC,0.16,VWS V14.01,2013-01-03 03:31:00,
2013-01-02 22:37:00,38.1,32.2,30.13,East,84,0.0,0.0,79,0.00,,SKC,0.16,VWS V14.01,2013-01-03 03:37:00,
2013-01-02 22:44:00,38.2,32.3,30.13,East,84,0.0,0.0,79,0.00,,SKC,0.16,VWS V14.01,2013-01-03 03:44:00,
2013-01-02 22:50:00,38.3,32.4,30.13,East,84,0.0,0.0,79,0.00,,SKC,0.16,VWS V14.01,2013-01-03 03:50:00,
2013-01-02 22:56:00,38.4,32.5,30.14,NE,43,0.0,0.0,79,0.00,,SKC,0.16,VWS V14.01,2013-01-03 03:56:00,
2013-01-02 23:01:00,38.4,32.2,30.13,NE,43,0.0,0.0,78,0.00,,SKC,0.16,VWS V14.01,2013-01-03 04:01:00,
2013-01-02 23:06:00,38.5,32.6,30.13,NE,42,0.0,0.0,79,0.00,,SKC,0.16,VWS V14.01,2013-01-03 04:06:00,
2013-01-02 23:12:00,38.5,32.6,30.12,ESE,108,0.0,0.0,79,0.00,,SKC,0.16,VWS V14.01,2013-01-03 04:12:00,
2013-01-02 23:18:00,38.4,32.5,30.13,ESE,108,0.0,0.0,79,0.00,,SKC,0.16,VWS V14.01,2013-01-03 04:18:00,
2013-01-02 23:24:00,38.4,32.2,30.13,ESE,108,0.0,0.0,78,0.00,,SKC,0.16,VWS V14.01,2013-01-03 04:24:00,
2013-01-02 23:30:00,38.4,32.2,30.13,ESE,108,0.0,0.0,78,0.00,,SKC,0.16,VWS V14.01,2013-01-03 04:30:00,
2013-01-02 23:36:00,38.4,32.2,30.13,ESE,105,0.0,0.0,78,0.00,,SKC,0.16,VWS V14.01,2013-01-03 04:36:00,
2013-01-02 23:41:00,38.4,32.5,30.13,ESE,106,0.0,0.0,79,0.00,,SKC,0.16,VWS V14.01,2013-01-03 04:41:00,
2013-01-02 23:46:00,38.4,32.5,30.12,ESE,106,0.0,0.0,79,0.00,,SKC,0.16,VWS V14.01,2013-01-03 04:46:00,
2013-01-02 23:52:00,38.3,32.0,30.12,NNE,26,0.0,0.0,78,0.00,,SKC,0.16,VWS V14.01,2013-01-03 04:52:00,
2013-01-02 23:58:00,38.3,32.4,30.12,ENE,77,0.0,0.0,79,0.00,,SKC,0.16,VWS V14.01,2013-01-03 04:58:00,